createdAt,value
2023-03-11T02:04:34.892Z,93152.59
2023-03-11T02:07:03.121Z,93175.44
2023-03-11T02:09:30.557Z,93163.16
2023-03-11T02:11:58.540Z,93185.19
2023-03-11T02:14:29.407Z,93160.78
2023-03-11T02:16:58.597Z,93189.78
2023-03-11T02:19:37.650Z,93192.16
2023-03-11T02:22:04.813Z,93192.94
2023-03-11T02:24:38.241Z,93200.50
2023-03-11T02:27:10.542Z,93214.59
2023-03-11T07:05:03.000Z,93339.19
2023-03-11T07:07:30.813Z,93331.44
2023-03-11T07:09:58.172Z,93323.09
2023-03-11T07:12:25.575Z,93323.88
2023-03-11T07:14:59.872Z,93330.47
2023-03-11T07:17:28.504Z,93320.34
2023-03-11T07:19:55.376Z,93328.25
2023-03-11T07:22:22.338Z,93335.22
2023-03-11T07:24:49.784Z,93338.63
2023-03-11T07:27:17.745Z,93315.97
2023-03-11T07:29:44.777Z,93317.13
2023-03-11T07:32:11.898Z,93317.50
2023-03-11T07:34:38.791Z,93316.13
2023-03-11T07:37:05.901Z,93308.72
2023-03-11T07:39:32.911Z,93306.69
2023-03-11T07:41:59.829Z,93301.13
2023-03-11T07:44:34.584Z,93289.13
2023-03-11T07:47:05.864Z,93267.00
2023-03-11T07:49:33.843Z,93282.88
2023-03-11T07:52:00.835Z,93277.06
2023-03-11T07:54:27.683Z,93282.41
2023-03-11T07:56:54.557Z,93275.59
2023-03-11T07:59:21.470Z,93263.41
2023-03-11T08:01:48.348Z,93253.75
2023-03-11T08:04:17.273Z,93244.69
2023-03-11T08:06:47.673Z,93245.03
2023-03-11T08:09:15.065Z,93238.38
2023-03-11T08:11:42.041Z,93236.72
2023-03-11T08:14:09.174Z,93227.03
2023-03-11T08:16:36.154Z,93228.78
2023-03-11T08:19:03.304Z,93222.97
2023-03-11T08:21:32.444Z,93210.00
2023-03-11T08:24:00.522Z,93208.84
2023-03-11T08:26:28.093Z,93196.81
2023-03-11T08:28:56.474Z,93207.72
2023-03-11T08:31:27.232Z,93193.75
2023-03-11T08:34:01.051Z,93199.50
2023-03-11T08:36:28.554Z,93196.84
2023-03-11T08:38:55.601Z,93205.38
2023-03-11T08:41:22.487Z,93179.50
2023-03-11T08:43:52.256Z,93182.81
2023-03-11T08:46:30.052Z,93191.59
2023-03-11T08:49:01.497Z,93188.88
2023-03-11T08:51:29.928Z,93174.47
2023-03-11T08:53:57.150Z,93174.69
2023-03-11T08:56:24.212Z,93181.16
2023-03-11T08:58:52.294Z,93178.75
2023-03-11T09:01:20.438Z,93177.50
2023-03-11T09:03:47.582Z,93167.31
2023-03-11T09:06:16.034Z,93168.34
2023-03-11T09:08:44.072Z,93178.06
2023-03-11T09:11:13.681Z,93172.59
2023-03-11T09:13:42.171Z,93165.47
2023-03-11T09:16:17.667Z,93170.09
2023-03-11T09:18:44.679Z,93175.31
2023-03-11T09:21:12.480Z,93167.38
2023-03-11T09:23:41.656Z,93165.56
2023-03-11T09:26:10.481Z,93148.63
2023-03-11T09:28:37.306Z,93167.63
2023-03-11T09:31:04.356Z,93148.94
2023-03-11T09:33:31.324Z,93143.56
2023-03-11T09:35:59.426Z,93140.91
2023-03-11T09:38:26.342Z,93135.22
2023-03-11T09:41:25.806Z,93146.66
2023-03-11T09:44:05.446Z,93147.81
2023-03-11T09:46:51.624Z,93143.78
2023-03-11T09:49:47.835Z,93138.00
2023-03-11T09:52:16.667Z,93130.78
2023-03-11T09:54:49.025Z,93130.13
2023-03-11T09:57:22.091Z,93123.72
2023-03-11T09:59:49.472Z,93129.16
2023-03-11T10:02:20.479Z,93120.94
2023-03-11T10:05:23.173Z,93125.81
2023-03-11T10:08:04.073Z,93128.50
2023-03-11T10:10:40.557Z,93146.72
2023-03-11T10:13:44.774Z,93146.56
2023-03-11T10:16:53.235Z,93153.78
2023-03-11T10:19:51.949Z,93161.31
2023-03-11T10:22:51.139Z,93161.16
2023-03-11T10:25:39.211Z,93157.66
2023-03-11T10:28:12.788Z,93153.59
2023-03-11T10:30:53.169Z,93155.72
2023-03-11T10:33:32.197Z,93154.34
2023-03-11T10:36:03.950Z,93149.84
2023-03-11T10:38:33.319Z,93156.13
2023-03-11T10:41:06.800Z,93158.31
2023-03-11T10:43:49.618Z,93161.03
2023-03-11T10:46:24.216Z,93143.00
2023-03-11T10:48:51.198Z,93159.28
2023-03-11T10:51:22.844Z,93166.72
2023-03-11T10:53:51.288Z,93178.38
2023-03-11T10:56:33.806Z,93169.34
2023-03-11T10:59:02.321Z,93169.00
2023-03-11T11:01:30.232Z,93169.44
2023-03-11T11:04:00.939Z,93178.94
2023-03-11T11:06:29.577Z,93177.47
2023-03-11T11:09:19.481Z,93178.53
2023-03-11T11:12:06.212Z,93168.97
2023-03-11T11:14:50.503Z,93160.09
2023-03-11T11:17:26.592Z,93155.84
2023-03-11T11:19:55.237Z,93145.94
2023-03-11T11:22:23.358Z,93138.88
2023-03-11T11:24:53.590Z,93137.66
2023-03-11T11:27:25.299Z,93134.50
2023-03-11T11:30:17.721Z,93138.81
2023-03-11T11:32:44.653Z,93133.34
2023-03-11T11:35:14.295Z,93126.00
2023-03-11T11:37:51.102Z,93133.84
2023-03-11T11:40:32.522Z,93120.13
2023-03-11T11:43:06.531Z,93114.34
2023-03-11T11:45:43.016Z,93102.47
2023-03-11T11:48:29.727Z,93096.50
2023-03-11T11:51:03.062Z,93082.91
2023-03-11T11:53:50.895Z,93085.59
2023-03-11T11:56:17.800Z,93079.31
2023-03-11T11:58:45.305Z,93088.38
2023-03-11T12:01:50.616Z,93072.41
2023-03-11T12:04:27.272Z,93078.13
2023-03-11T12:07:24.960Z,93063.28
2023-03-11T12:10:19.794Z,93071.03
2023-03-11T12:13:07.902Z,93052.38
2023-03-11T12:15:59.020Z,93056.94
2023-03-11T12:18:39.273Z,93045.69
2023-03-11T12:21:32.389Z,93058.94
2023-03-11T12:24:23.057Z,93064.41
2023-03-11T12:26:54.887Z,93049.50
2023-03-11T12:29:21.621Z,93060.63
2023-03-11T12:31:49.031Z,93059.41
2023-03-11T12:34:20.516Z,93061.88
2023-03-11T12:36:49.204Z,93070.56
2023-03-11T12:39:31.741Z,93059.94
2023-03-11T12:42:11.978Z,93075.28
2023-03-11T12:44:40.257Z,93082.50
2023-03-11T12:47:13.149Z,93083.41
2023-03-11T12:49:45.220Z,93081.47
2023-03-11T12:52:12.049Z,93096.41
2023-03-11T12:55:02.208Z,93100.31
2023-03-11T12:57:40.783Z,93067.44
2023-03-11T13:00:39.710Z,93105.38
2023-03-11T13:03:51.260Z,93113.53
2023-03-11T13:06:33.298Z,93116.63
2023-03-11T13:09:00.852Z,93129.56
2023-03-11T13:11:35.991Z,93130.34
2023-03-11T13:14:15.010Z,93146.28
2023-03-11T13:16:43.098Z,93149.03
2023-03-11T13:19:33.978Z,93162.47
2023-03-11T13:22:03.221Z,93168.47
2023-03-11T13:24:29.907Z,93184.25
2023-03-11T13:26:56.682Z,93186.63
2023-03-11T13:29:57.628Z,93199.53
2023-03-11T13:32:42.967Z,93218.63
2023-03-11T13:35:34.025Z,93218.50
2023-03-11T13:38:26.400Z,93227.94
2023-03-11T13:40:53.849Z,93224.78
2023-03-11T13:43:23.357Z,93247.38
2023-03-11T13:46:08.382Z,93240.25
2023-03-11T13:48:45.104Z,93244.50
2023-03-11T13:51:24.455Z,93255.88
2023-03-11T13:53:59.902Z,93252.69
2023-03-11T13:56:31.666Z,93250.94
2023-03-11T13:59:22.973Z,93216.94
2023-03-11T14:02:01.647Z,93237.59
2023-03-11T14:04:33.813Z,93222.28
2023-03-11T14:07:12.129Z,93233.00
2023-03-11T14:09:39.328Z,93228.81
2023-03-11T14:12:10.305Z,93216.50
2023-03-11T14:14:37.092Z,93240.75
2023-03-11T14:17:09.271Z,93245.94
2023-03-11T14:19:37.292Z,93233.81
2023-03-11T14:22:08.805Z,93247.94
2023-03-11T14:24:36.697Z,93255.69
2023-03-11T14:27:11.597Z,93249.31
2023-03-11T14:29:42.225Z,93266.63
2023-03-11T14:32:34.762Z,93250.69
2023-03-11T14:35:02.073Z,93252.28
2023-03-11T14:37:34.730Z,93255.09
2023-03-11T14:40:02.128Z,93262.06
2023-03-11T14:42:40.475Z,93274.78
2023-03-11T14:45:15.768Z,93270.78
2023-03-11T14:48:00.817Z,93274.38
2023-03-11T14:50:31.915Z,93281.72
2023-03-11T14:53:04.908Z,93278.94
2023-03-11T14:55:36.563Z,93290.09
2023-03-11T14:58:12.536Z,93289.50
2023-03-11T15:00:46.686Z,93311.97
2023-03-11T15:03:24.687Z,93314.13
2023-03-11T15:05:59.435Z,93324.66
2023-03-11T15:08:31.664Z,93313.88
2023-03-11T15:11:11.883Z,93329.59
2023-03-11T15:13:44.145Z,93334.53
2023-03-11T15:16:29.013Z,93347.47
2023-03-11T15:18:56.668Z,93349.66
2023-03-11T15:21:25.449Z,93356.78
2023-03-11T15:24:05.417Z,93357.19
2023-03-11T15:26:38.310Z,93362.31
2023-03-11T15:29:15.962Z,93368.28
2023-03-11T15:31:46.643Z,93364.66
2023-03-11T15:34:19.428Z,93382.16
2023-03-11T15:36:49.453Z,93388.69
2023-03-11T15:39:31.516Z,93390.91
2023-03-11T15:42:02.385Z,93400.19
2023-03-11T15:44:41.464Z,93413.47
2023-03-11T15:47:20.583Z,93411.03
2023-03-11T15:49:47.926Z,93424.16
2023-03-11T15:52:15.987Z,93431.22
2023-03-11T15:54:49.468Z,93439.31
2023-03-11T15:57:25.308Z,93446.09
2023-03-11T15:59:55.259Z,93455.47
2023-03-11T16:02:25.145Z,93453.34
2023-03-11T16:04:52.665Z,93467.31
2023-03-11T16:07:29.482Z,93473.31
2023-03-11T16:10:06.137Z,93475.97
2023-03-11T16:12:33.441Z,93481.38
2023-03-11T16:15:00.601Z,93496.50
2023-03-11T16:17:31.854Z,93494.94
2023-03-11T16:20:07.082Z,93496.00
2023-03-11T16:22:37.536Z,93486.00
2023-03-11T16:25:07.633Z,93501.16
2023-03-11T16:27:34.684Z,93511.00
2023-03-11T16:30:01.731Z,93530.84
2023-03-11T16:32:28.700Z,93539.19
2023-03-11T16:34:55.657Z,93552.44
2023-03-11T16:37:25.682Z,93553.25
2023-03-11T16:39:52.933Z,93562.50
2023-03-11T16:42:23.855Z,93575.81
2023-03-11T16:44:51.121Z,93587.41
2023-03-11T16:47:18.255Z,93601.59
2023-03-11T16:49:45.254Z,93605.34
2023-03-11T16:52:12.331Z,93616.44
2023-03-11T16:54:40.375Z,93625.13
2023-03-11T16:57:07.288Z,93629.31
2023-03-11T16:59:34.158Z,93641.84
2023-03-11T17:02:01.078Z,93660.13
2023-03-11T17:04:28.176Z,93655.97
2023-03-11T17:06:56.533Z,93660.19
2023-03-11T17:09:23.995Z,93665.31
2023-03-11T17:11:51.032Z,93689.53
2023-03-11T17:14:19.439Z,93684.25
2023-03-11T17:16:47.712Z,93691.28
2023-03-11T17:19:14.567Z,93689.72
2023-03-11T17:21:41.495Z,93702.50
2023-03-11T17:24:10.372Z,93707.00
2023-03-11T17:26:38.000Z,93708.59
2023-03-11T17:29:05.895Z,93721.28
2023-03-11T17:31:32.773Z,93728.78
2023-03-11T17:33:59.802Z,93725.72
2023-03-11T17:36:26.802Z,93741.13
2023-03-11T17:38:54.748Z,93742.72
2023-03-11T17:41:22.736Z,93758.72
2023-03-11T17:43:51.427Z,93779.56
2023-03-11T17:46:20.759Z,93790.91
2023-03-11T17:48:49.846Z,93797.16
2023-03-11T17:51:22.088Z,93792.13
2023-03-11T17:53:49.766Z,93809.13
2023-03-11T17:56:20.631Z,93811.03
2023-03-11T17:58:48.341Z,93809.72
2023-03-11T18:01:18.431Z,93816.75
2023-03-11T18:03:45.706Z,93828.59
2023-03-11T18:06:13.081Z,93827.94
2023-03-11T18:08:40.348Z,93833.94
2023-03-11T18:11:11.161Z,93834.91
2023-03-11T18:13:39.805Z,93838.78
2023-03-11T18:16:13.129Z,93831.75
2023-03-11T18:18:41.006Z,93835.75
2023-03-11T18:21:16.207Z,93839.13
2023-03-11T18:23:43.585Z,93848.56
2023-03-11T18:26:12.952Z,93864.75
2023-03-11T18:28:39.921Z,93839.13
2023-03-11T18:31:14.987Z,93865.56
2023-03-11T18:33:46.447Z,93874.41
2023-03-11T18:36:17.486Z,93887.88
2023-03-11T18:38:45.180Z,93890.75
2023-03-11T18:41:12.500Z,93885.75
2023-03-11T18:43:39.633Z,93884.78
2023-03-11T18:46:13.647Z,93890.88
2023-03-11T18:48:41.507Z,93898.06
2023-03-11T18:51:09.559Z,93907.03
2023-03-11T18:53:37.058Z,93908.47
2023-03-11T18:56:06.718Z,93905.09
2023-03-11T18:58:36.580Z,93895.78
2023-03-11T19:01:12.785Z,93898.38
2023-03-11T19:03:44.118Z,93882.97
2023-03-11T19:06:13.526Z,93900.59
2023-03-11T19:08:41.275Z,93909.25
2023-03-11T19:11:10.466Z,93897.81
2023-03-11T19:13:47.750Z,93917.06
2023-03-11T19:16:17.707Z,93914.66
2023-03-11T19:18:45.471Z,93919.78
2023-03-11T19:21:14.858Z,93928.84
2023-03-11T19:23:41.825Z,93929.81
2023-03-11T19:26:08.852Z,93938.75
2023-03-11T19:28:36.111Z,93944.31
2023-03-11T19:31:04.011Z,93951.63
2023-03-11T19:33:31.221Z,93939.78
2023-03-11T19:36:00.736Z,93953.09
2023-03-11T19:38:29.051Z,93952.31
2023-03-11T19:41:05.289Z,93959.03
2023-03-11T19:43:33.199Z,93966.34
2023-03-11T19:46:07.438Z,93966.06
2023-03-11T19:48:35.155Z,93977.91
2023-03-11T19:51:02.813Z,93979.00
2023-03-11T19:53:30.040Z,93983.59
2023-03-11T19:55:57.938Z,93982.94
2023-03-11T19:58:30.080Z,93983.84
2023-03-11T20:00:58.693Z,93991.38
2023-03-11T20:03:26.582Z,93984.63
2023-03-11T20:05:56.788Z,93997.06
2023-03-11T20:08:25.415Z,93992.59
2023-03-11T20:10:53.798Z,93998.03
2023-03-11T20:13:22.319Z,94006.66
2023-03-11T20:15:51.620Z,94004.91
2023-03-11T20:18:18.534Z,94012.88
2023-03-11T20:20:45.589Z,94014.94
2023-03-11T20:23:12.594Z,94023.56
2023-03-11T20:25:41.099Z,94024.38
2023-03-11T20:28:08.613Z,94035.69
2023-03-11T20:30:38.472Z,94040.31
2023-03-11T20:33:06.021Z,94052.97
2023-03-11T20:35:33.303Z,94048.13
2023-03-11T20:38:00.240Z,94051.09
2023-03-11T20:40:27.349Z,94060.53
2023-03-11T20:42:54.228Z,94050.59
2023-03-11T20:45:22.166Z,94044.97
2023-03-11T20:47:54.090Z,94057.63
2023-03-11T20:50:22.155Z,94063.03
2023-03-11T20:52:49.856Z,94049.19
2023-03-11T20:55:17.256Z,94067.34
2023-03-11T20:57:44.253Z,94055.34
2023-03-11T21:00:13.698Z,94067.06
2023-03-11T21:02:41.340Z,94063.38
2023-03-11T21:05:09.515Z,94065.53
2023-03-11T21:07:36.836Z,94060.81
2023-03-11T21:10:07.341Z,94068.88
2023-03-11T21:12:34.347Z,94059.25
2023-03-11T21:15:01.341Z,94053.47
2023-03-11T21:17:28.388Z,94057.31
2023-03-11T21:19:55.335Z,94055.69
2023-03-11T21:22:22.321Z,94057.63
2023-03-11T21:24:57.700Z,94071.06
2023-03-11T21:27:27.906Z,94068.81
2023-03-11T21:29:56.060Z,94080.28
2023-03-11T21:32:24.145Z,94083.25
2023-03-11T21:34:51.382Z,94081.44
2023-03-11T21:37:18.343Z,94090.53
2023-03-11T21:39:45.180Z,94084.94
2023-03-11T21:42:12.072Z,94088.78
2023-03-11T21:44:41.570Z,94096.78
2023-03-11T21:47:09.073Z,94093.56
2023-03-11T21:49:36.532Z,94095.31
2023-03-11T21:52:03.578Z,94100.56
2023-03-11T21:54:31.282Z,94114.97
2023-03-11T21:56:58.167Z,94106.63
2023-03-11T21:59:25.715Z,94121.84
2023-03-11T22:01:54.739Z,94130.19
2023-03-11T22:04:21.801Z,94129.38
2023-03-11T22:06:48.843Z,94129.38
2023-03-11T22:09:16.030Z,94111.06
2023-03-11T22:11:42.941Z,94121.59
2023-03-11T22:14:10.917Z,94110.69
2023-03-11T22:16:37.872Z,94122.53
2023-03-11T22:19:06.263Z,94106.56
2023-03-11T22:21:33.319Z,94124.13
2023-03-11T22:24:00.167Z,94132.38
2023-03-11T22:26:27.684Z,94134.41
2023-03-11T22:28:54.650Z,94153.94
2023-03-11T22:31:21.747Z,94156.91
2023-03-11T22:33:48.639Z,94141.56
2023-03-11T22:36:15.788Z,94142.94
2023-03-11T22:38:45.099Z,94138.38
2023-03-11T22:41:15.470Z,94157.91
2023-03-11T22:43:42.398Z,94169.59
2023-03-11T22:46:09.456Z,94157.38
2023-03-11T22:48:36.608Z,94156.44
2023-03-11T22:51:03.951Z,94172.03
2023-03-11T22:53:30.890Z,94168.31
2023-03-11T22:55:57.783Z,94176.38
2023-03-11T22:58:24.680Z,94181.19
2023-03-11T23:00:51.625Z,94183.34
2023-03-11T23:03:18.697Z,94177.97
2023-03-11T23:05:47.003Z,94176.63
2023-03-11T23:08:15.838Z,94184.84
2023-03-11T23:10:44.871Z,94180.38
2023-03-11T23:13:12.221Z,94179.16
2023-03-11T23:15:44.484Z,94181.34
